Georgetown, Arkansas
Current Conditions -  °F | °C
As of 9:56 PM on Sunday 25 Jan 2015 (Local Time) from KSRC Reporting Station
Overcast Overcast  
Wind Chill: 39°   Ceiling: 3000
Heat Index: 45°   Visibility: 10mi
Dew Point: 34°   Wind: 13mph
Humidity: 65%   Direction: 310°NW
Pressure: 29.99"   Gusts: 23mph
Location:  35.2662°N, 91.8491°W
Report Text: KSRC 260356Z AUTO 31011G20KT 290V360 10SM OVC030 07/01 A2999 RMK AO2 SLP163 T00720011 TSNO
Loading
Personal Weather Stations






























Interactive Weather Map New forecast layout! Learn more

10-Day Weather Forecast

Advertisements
Track Severe Weather on mobile